If you wish to contribute or participate in the discussions about articles you are invited to join SKYbrary as a registered user

 Actions

Dole-Tavaux Airport

From SKYbrary Wiki

LFGJ
Airport
ICAO: LFGJ – IATA: DLE
Summary
Name Dole-Tavaux Airport
Region Europe
Territory France FR.gif
Location , Franche-Comte
Serving Dole
Elevation 196.596 m
645 ft
645 ft196.596 m
Type medium airport
Coordinates 47° 2' 20.45" N, 5° 25' 38.10" E
Runways
Designator Length Width Surface ROPS
5/23 2231 m7,319.554 ft
45 m147.638 ft
ASP yes/yes


METAR
Observation LFGJ 110830Z AUTO 17008KT 140V200 9999 -SNRA ///CB 03/02 Q1014 BECMG BKN050
Station Dole Tavaux
Date/Time 11 December 2019 08:30:00
Wind direction 170°
Wind speed 08 kts
Lowest cloud amount broken clouds
Temperature 3°C
Dew point 2°C
Humidity 93%
QNH 1014 hPa
Weather condition rain